Startpagina
METAR-TAF:

METAR-TAF

Vliegvelden :

Brunei International Airport

Brunei, Brunei

breedte: 04-56N, lengte: 114-56E, hoogte: 22 m

Actueel weer

Dit bericht is 27 minuten geleden gemaakt, om 21:00 UTC
Wind 5 kt uit het noorden
Temperatuur 27°C
Vochtigheid 89%
Druk 1010 hPa
Zicht: 9000 m
Weinig wolken op 1500 ft
Verspreide wolken op 14000 ft
Gebroken wolken op 30000 ft

METAR: WBSB 242100Z 01005KT 9000 FEW015 SCT140 BKN300 27/25 Q1010 NOSIG

Tijdstip: 05:27 (21:27 UTC)

Verwachting

Dit bericht is 4 uur en het 37 minuten geleden gemaakt, om 16:50 UTC
Verwachting geldig van 24 om 18 UTC tot 26 om 00 UTC
Wind 3 kt uit het noordnoordoosten
Zicht 10 km of meer
Weinig wolken op 1500 ft
Wijzigt naar
van 25 om 03 UTC tot 25 om 06 UTC
Wind 8 kt uit het oostnoordoosten
Weinig wolken op 1600 ft

TAF: WBSB 241650Z 2418/2600 02003KT 9999 FEW015 BECMG 2503/2506 06008KT FEW016

Waarnemingen en weersverwachtingen van meer dan 4000 vliegvelden (METAR en TAF).

De beschikbare stations zijn de gele en rode punten op de kaart.

Ga met uw muis naar het station om de naam te zien.

Klik dan om waarnemingen en weersverwachtingen te zien.

kaart wijzigen: klik op de groene knoppen met een zwart kruis om in te zoomen, op de groene knop met een streepje om uit te zoomen of op de groene pijlen voor aangrenzende kaarten.


METAR-TAF: